createdAt,value
2023-05-22T00:00:03.758Z,996.71
2023-05-22T00:00:34.299Z,996.71
2023-05-22T00:01:06.518Z,996.61
2023-05-22T00:01:35.370Z,996.61
2023-05-22T00:01:54.035Z,996.61
2023-05-22T00:02:26.089Z,996.61
2023-05-22T00:02:42.543Z,996.82
2023-05-22T00:03:14.071Z,996.82
2023-05-22T00:03:36.028Z,996.71
2023-05-22T00:04:01.998Z,996.71
2023-05-22T00:04:34.718Z,996.71
2023-05-22T00:05:06.940Z,996.61
2023-05-22T00:05:36.083Z,996.71
2023-05-22T00:05:54.256Z,996.71
2023-05-22T00:06:26.045Z,996.71
2023-05-22T00:06:42.525Z,996.71
2023-05-22T00:07:13.989Z,996.71
2023-05-22T00:07:35.959Z,996.71
2023-05-22T00:08:02.902Z,996.71
2023-05-22T00:08:34.373Z,996.71
2023-05-22T00:09:06.488Z,996.71
2023-05-22T00:09:34.535Z,996.61
2023-05-22T00:09:54.102Z,996.61
2023-05-22T00:10:26.413Z,996.61
2023-05-22T00:10:42.468Z,996.71
2023-05-22T00:11:14.778Z,996.71
2023-05-22T00:11:36.122Z,996.51
2023-05-22T00:12:02.108Z,996.51
2023-05-22T00:12:33.976Z,996.51
2023-05-22T00:13:06.523Z,996.71
2023-05-22T00:13:34.554Z,996.71
2023-05-22T00:13:54.017Z,996.71
2023-05-22T00:14:26.782Z,996.71
2023-05-22T00:14:58.013Z,996.82
2023-05-22T00:15:30.478Z,996.82
2023-05-22T00:16:03.036Z,996.61
2023-05-22T00:16:34.149Z,996.61
2023-05-22T00:17:06.695Z,996.61
2023-05-22T00:17:35.410Z,996.61
2023-05-22T00:17:54.164Z,996.61
2023-05-22T00:18:25.986Z,996.61
2023-05-22T00:18:42.502Z,996.82
2023-05-22T00:19:14.023Z,996.82
2023-05-22T00:19:35.975Z,996.82
2023-05-22T00:20:03.234Z,996.82
2023-05-22T00:20:33.994Z,996.82
2023-05-22T00:21:06.733Z,996.61
2023-05-22T00:21:34.548Z,996.71
2023-05-22T00:21:53.996Z,996.71
2023-05-22T00:22:26.057Z,996.71
2023-05-22T00:22:42.489Z,996.82
2023-05-22T00:23:15.581Z,996.82
2023-05-22T00:23:36.009Z,996.71
2023-05-22T00:24:02.690Z,996.71
2023-05-22T00:24:34.101Z,996.71
2023-05-22T00:25:07.052Z,996.41
2023-05-22T00:25:34.665Z,996.61
2023-05-22T00:25:54.184Z,996.61
2023-05-22T00:26:25.962Z,996.61
2023-05-22T00:26:42.449Z,996.41
2023-05-22T00:27:14.818Z,996.41
2023-05-22T00:27:36.022Z,996.41
2023-05-22T00:28:02.008Z,996.41
2023-05-22T00:28:34.388Z,996.41
2023-05-22T00:29:06.495Z,996.61
2023-05-22T00:29:34.587Z,996.41
2023-05-22T00:29:53.982Z,996.41
2023-05-22T00:30:27.438Z,996.41
2023-05-22T00:30:58.002Z,996.71
2023-05-22T00:31:30.003Z,996.71
2023-05-22T00:32:02.030Z,996.61
2023-05-22T00:32:33.969Z,996.61
2023-05-22T00:33:06.667Z,996.51
2023-05-22T00:33:35.941Z,996.71
2023-05-22T00:33:54.009Z,996.71
2023-05-22T00:34:26.019Z,996.71
2023-05-22T00:34:42.578Z,996.51
2023-05-22T00:35:14.333Z,996.51
2023-05-22T00:35:35.900Z,996.41
2023-05-22T00:36:02.045Z,996.41
2023-05-22T00:36:33.939Z,996.41
2023-05-22T00:37:06.553Z,996.51
2023-05-22T00:37:34.527Z,996.51
2023-05-22T00:37:53.962Z,996.51
2023-05-22T00:38:25.976Z,996.51
2023-05-22T00:38:42.493Z,996.41
2023-05-22T00:39:13.985Z,996.41
2023-05-22T00:39:36.360Z,996.31
2023-05-22T00:40:03.280Z,996.31
2023-05-22T00:40:34.233Z,996.31
2023-05-22T00:41:06.927Z,996.61
2023-05-22T00:41:36.986Z,996.51
2023-05-22T00:41:54.028Z,996.51
2023-05-22T00:42:26.021Z,996.51
2023-05-22T00:42:42.885Z,996.61
2023-05-22T00:43:15.416Z,996.61
2023-05-22T00:43:37.003Z,996.41
2023-05-22T00:44:02.012Z,996.41
2023-05-22T00:44:34.110Z,996.41
2023-05-22T00:45:07.809Z,996.51
2023-05-22T00:45:34.829Z,996.41
2023-05-22T00:45:54.620Z,996.41
2023-05-22T00:46:27.361Z,996.41
2023-05-22T00:46:58.272Z,996.31
2023-05-22T00:47:30.147Z,996.31
2023-05-22T00:48:02.261Z,996.41
2023-05-22T00:48:34.161Z,996.41
2023-05-22T00:49:06.708Z,996.24
2023-05-22T00:49:35.355Z,996.41
2023-05-22T00:49:54.279Z,996.41
2023-05-22T00:50:26.323Z,996.41
2023-05-22T00:50:42.486Z,996.31
2023-05-22T00:51:14.471Z,996.31
2023-05-22T00:51:36.459Z,996.31
2023-05-22T00:52:02.175Z,996.31
2023-05-22T00:52:33.961Z,996.31
2023-05-22T00:53:06.518Z,996.51
2023-05-22T00:53:34.622Z,996.31
2023-05-22T00:53:54.020Z,996.31
2023-05-22T00:54:26.077Z,996.31
2023-05-22T00:54:42.538Z,996.41
2023-05-22T00:55:14.313Z,996.41
2023-05-22T00:55:36.072Z,996.41
2023-05-22T00:56:02.706Z,996.41
2023-05-22T00:56:34.071Z,996.41
2023-05-22T00:57:06.592Z,996.61
2023-05-22T00:57:34.587Z,996.51
2023-05-22T00:57:53.983Z,996.51
2023-05-22T00:58:26.034Z,996.51
2023-05-22T00:58:42.478Z,996.31
2023-05-22T00:59:14.048Z,996.31
2023-05-22T00:59:35.847Z,996.41
2023-05-22T01:00:03.903Z,996.41
2023-05-22T01:00:34.057Z,996.41
2023-05-22T01:01:06.645Z,996.41
2023-05-22T01:01:37.210Z,996.24
2023-05-22T01:02:10.095Z,996.24
2023-05-22T01:02:35.240Z,996.41
2023-05-22T01:02:58.079Z,996.41
2023-05-22T01:03:30.135Z,996.41
2023-05-22T01:04:02.260Z,996.41
2023-05-22T01:04:33.962Z,996.41
2023-05-22T01:05:06.928Z,996.41
2023-05-22T01:05:34.590Z,996.31
2023-05-22T01:05:54.210Z,996.31
2023-05-22T01:06:26.042Z,996.31
2023-05-22T01:06:42.478Z,996.31
2023-05-22T01:07:14.095Z,996.31
2023-05-22T01:07:35.577Z,996.41
2023-05-22T01:08:02.789Z,996.41
2023-05-22T01:08:34.188Z,996.41
2023-05-22T01:09:06.554Z,996.51
2023-05-22T01:09:34.579Z,996.51
2023-05-22T01:09:54.041Z,996.51
2023-05-22T01:10:26.455Z,996.51
2023-05-22T01:10:43.008Z,996.41
2023-05-22T01:11:14.877Z,996.41
2023-05-22T01:11:35.623Z,996.41
2023-05-22T01:12:02.061Z,996.41
2023-05-22T01:12:34.047Z,996.41
2023-05-22T01:13:06.529Z,996.51
2023-05-22T01:13:34.599Z,996.41
2023-05-22T01:13:53.985Z,996.41
2023-05-22T01:14:26.877Z,996.41
2023-05-22T01:14:57.980Z,996.31
2023-05-22T01:15:30.791Z,996.31
2023-05-22T01:16:02.171Z,996.31
2023-05-22T01:16:33.981Z,996.31
2023-05-22T01:17:06.524Z,996.41
2023-05-22T01:17:35.437Z,996.24
2023-05-22T01:17:54.037Z,996.24
2023-05-22T01:18:26.035Z,996.24
2023-05-22T01:18:42.529Z,996.41
2023-05-22T01:19:14.011Z,996.41
2023-05-22T01:19:36.349Z,996.24
2023-05-22T01:20:03.496Z,996.24
2023-05-22T01:20:33.981Z,996.24
2023-05-22T01:21:06.948Z,996.51
2023-05-22T01:21:34.569Z,996.31
2023-05-22T01:21:53.944Z,996.31
2023-05-22T01:22:25.988Z,996.31
2023-05-22T01:22:42.489Z,996.41
2023-05-22T01:23:13.976Z,996.41
2023-05-22T01:23:35.573Z,996.24
2023-05-22T01:24:02.790Z,996.24
2023-05-22T01:24:33.961Z,996.24
2023-05-22T01:25:06.907Z,996.24
2023-05-22T01:25:34.564Z,996.31
2023-05-22T01:25:54.254Z,996.31
2023-05-22T01:26:26.016Z,996.31
2023-05-22T01:26:42.494Z,996.51
2023-05-22T01:27:14.770Z,996.51
2023-05-22T01:27:35.604Z,996.24
2023-05-22T01:28:02.033Z,996.24
2023-05-22T01:28:33.972Z,996.24
2023-05-22T01:29:06.537Z,996.51
2023-05-22T01:29:34.557Z,996.24
2023-05-22T01:29:53.941Z,996.24
2023-05-22T01:30:27.325Z,996.24
2023-05-22T01:30:58.148Z,996.41
2023-05-22T01:31:30.271Z,996.41
2023-05-22T01:32:02.008Z,996.41
2023-05-22T01:32:34.042Z,996.41
2023-05-22T01:33:06.762Z,996.51
2023-05-22T01:33:35.344Z,996.51
2023-05-22T01:33:54.033Z,996.51
2023-05-22T01:34:25.947Z,996.51
2023-05-22T01:34:42.427Z,996.24
2023-05-22T01:35:14.203Z,996.24
2023-05-22T01:35:35.509Z,996.31
2023-05-22T01:36:02.011Z,996.31
2023-05-22T01:36:33.948Z,996.31
2023-05-22T01:37:06.467Z,996.31
2023-05-22T01:37:34.516Z,996.31
2023-05-22T01:37:53.914Z,996.31
2023-05-22T01:38:25.952Z,996.31
2023-05-22T01:38:42.418Z,996.51
2023-05-22T01:39:13.945Z,996.51
2023-05-22T01:39:35.510Z,996.31
2023-05-22T01:40:03.369Z,996.31
2023-05-22T01:40:33.914Z,996.31
2023-05-22T01:41:06.490Z,996.31
2023-05-22T01:41:34.517Z,996.61
2023-05-22T01:41:53.937Z,996.61
2023-05-22T01:42:25.977Z,996.61
2023-05-22T01:42:42.418Z,996.41
2023-05-22T01:43:14.631Z,996.41
2023-05-22T01:43:35.683Z,996.31
2023-05-22T01:44:01.959Z,996.31
2023-05-22T01:44:33.941Z,996.31
2023-05-22T01:45:07.170Z,996.24
2023-05-22T01:45:34.575Z,996.31
2023-05-22T01:45:54.151Z,996.31
2023-05-22T01:46:26.752Z,996.31
2023-05-22T01:46:58.000Z,996.24
2023-05-22T01:47:29.967Z,996.24
2023-05-22T01:48:02.018Z,996.41
2023-05-22T01:48:34.104Z,996.41
2023-05-22T01:49:06.464Z,996.31
2023-05-22T01:49:36.522Z,996.51
2023-05-22T01:49:53.955Z,996.51
2023-05-22T01:50:26.316Z,996.51
2023-05-22T01:50:42.576Z,996.51
2023-05-22T01:51:13.896Z,996.51
2023-05-22T01:51:35.541Z,996.41
2023-05-22T01:52:02.309Z,996.41
2023-05-22T01:52:33.947Z,996.41
2023-05-22T01:53:06.495Z,996.31
2023-05-22T01:53:34.592Z,996.31
2023-05-22T01:53:53.898Z,996.31
2023-05-22T01:54:25.951Z,996.31
2023-05-22T01:54:42.439Z,996.31
2023-05-22T01:55:14.223Z,996.31
2023-05-22T01:55:36.311Z,996.24
2023-05-22T01:56:02.644Z,996.24
2023-05-22T01:56:34.847Z,996.24
2023-05-22T01:57:06.410Z,996.31
2023-05-22T01:57:34.715Z,996.31
2023-05-22T01:57:53.893Z,996.31
2023-05-22T01:58:25.960Z,996.31
2023-05-22T01:58:42.436Z,996.41
2023-05-22T01:59:14.569Z,996.41
2023-05-22T01:59:36.307Z,996.41
2023-05-22T02:00:03.688Z,996.41
2023-05-22T02:00:34.043Z,996.41
2023-05-22T02:01:06.600Z,996.61
2023-05-22T02:01:34.876Z,996.51
2023-05-22T02:01:54.039Z,996.51
2023-05-22T02:02:27.221Z,996.51
2023-05-22T02:02:57.938Z,996.04
2023-05-22T02:03:30.077Z,996.04
2023-05-22T02:04:01.981Z,996.41
2023-05-22T02:04:33.913Z,996.41
2023-05-22T02:05:06.865Z,996.31
2023-05-22T02:05:35.512Z,996.24
2023-05-22T02:05:54.193Z,996.24
2023-05-22T02:06:25.956Z,996.24
2023-05-22T02:06:42.419Z,996.41
2023-05-22T02:07:13.938Z,996.41
2023-05-22T02:07:35.505Z,996.31
2023-05-22T02:08:01.977Z,996.31
2023-05-22T02:08:33.874Z,996.31
2023-05-22T02:09:06.542Z,996.04
2023-05-22T02:09:34.510Z,996.14
2023-05-22T02:09:53.965Z,996.14
2023-05-22T02:10:26.274Z,996.14
2023-05-22T02:10:42.449Z,996.41
2023-05-22T02:11:13.949Z,996.41
2023-05-22T02:11:35.497Z,996.31
2023-05-22T02:12:02.653Z,996.31
2023-05-22T02:12:33.894Z,996.31
2023-05-22T02:13:06.405Z,996.51
2023-05-22T02:13:34.514Z,996.31
2023-05-22T02:13:54.075Z,996.31
2023-05-22T02:14:25.967Z,996.31
2023-05-22T02:14:42.459Z,996.31
2023-05-22T02:15:15.275Z,996.31
2023-05-22T02:15:35.563Z,996.31
2023-05-22T02:16:03.203Z,996.31
2023-05-22T02:16:33.985Z,996.31
2023-05-22T02:17:06.429Z,996.41
2023-05-22T02:17:34.563Z,996.14
2023-05-22T02:17:54.147Z,996.14
2023-05-22T02:18:26.683Z,996.14
2023-05-22T02:18:57.969Z,996.31
2023-05-22T02:19:29.998Z,996.31
2023-05-22T02:20:03.358Z,996.14
2023-05-22T02:20:33.932Z,996.14
2023-05-22T02:21:06.409Z,996.24
2023-05-22T02:21:36.889Z,996.24
2023-05-22T02:21:53.922Z,996.24
2023-05-22T02:22:25.941Z,996.24
2023-05-22T02:22:42.459Z,996.41
2023-05-22T02:23:14.219Z,996.41
2023-05-22T02:23:35.491Z,996.31
2023-05-22T02:24:01.991Z,996.31
2023-05-22T02:24:33.911Z,996.31
2023-05-22T02:25:06.760Z,996.24
2023-05-22T02:25:34.547Z,996.41
2023-05-22T02:25:54.130Z,996.41
2023-05-22T02:26:26.130Z,996.41
2023-05-22T02:26:57.904Z,996.14
2023-05-22T02:27:29.941Z,996.14
2023-05-22T02:28:02.904Z,996.14
2023-05-22T02:28:33.890Z,996.14
2023-05-22T02:29:06.491Z,996.41
2023-05-22T02:29:34.505Z,996.31
2023-05-22T02:29:53.883Z,996.31
2023-05-22T02:30:26.467Z,996.31
2023-05-22T02:30:42.493Z,996.31
2023-05-22T02:31:14.634Z,996.31
2023-05-22T02:31:35.515Z,996.31
2023-05-22T02:32:01.968Z,996.31
2023-05-22T02:32:33.969Z,996.31
2023-05-22T02:33:06.521Z,996.31
2023-05-22T02:33:34.816Z,996.31
2023-05-22T02:33:53.915Z,996.31
2023-05-22T02:34:26.718Z,996.31
2023-05-22T02:34:57.906Z,996.14
2023-05-22T02:35:30.187Z,996.14
2023-05-22T02:36:01.942Z,996.24
2023-05-22T02:36:33.901Z,996.24
2023-05-22T02:37:06.613Z,996.14
2023-05-22T02:37:36.245Z,996.24
2023-05-22T02:37:53.904Z,996.24
2023-05-22T02:38:25.890Z,996.24
2023-05-22T02:38:42.391Z,996.24
2023-05-22T02:39:13.895Z,996.24
2023-05-22T02:39:35.499Z,996.41
2023-05-22T02:40:03.308Z,996.41
2023-05-22T02:40:33.902Z,996.41
2023-05-22T02:41:06.491Z,996.14
2023-05-22T02:41:34.508Z,996.41
2023-05-22T02:41:53.909Z,996.41
2023-05-22T02:42:25.898Z,996.41
2023-05-22T02:42:42.404Z,996.24
2023-05-22T02:43:13.925Z,996.24
2023-05-22T02:43:35.481Z,996.14
2023-05-22T02:44:02.640Z,996.14
2023-05-22T02:44:33.891Z,996.14
2023-05-22T02:45:06.877Z,996.14
2023-05-22T02:45:34.513Z,996.31
2023-05-22T02:45:54.175Z,996.31
2023-05-22T02:46:26.182Z,996.31
2023-05-22T02:46:42.447Z,996.24
2023-05-22T02:47:14.697Z,996.24
2023-05-22T02:47:36.445Z,996.24
2023-05-22T02:48:02.048Z,996.24
2023-05-22T02:48:34.330Z,996.24
2023-05-22T02:49:06.399Z,996.14
2023-05-22T02:49:34.618Z,996.24
2023-05-22T02:49:53.906Z,996.24
2023-05-22T02:50:27.013Z,996.24
2023-05-22T02:50:57.897Z,996.24
2023-05-22T02:51:30.038Z,996.24
2023-05-22T02:52:01.915Z,996.24
2023-05-22T02:52:33.896Z,996.24
2023-05-22T02:53:06.461Z,996.14
2023-05-22T02:53:35.582Z,996.24
2023-05-22T02:53:53.900Z,996.24
2023-05-22T02:54:25.902Z,996.24
2023-05-22T02:54:42.438Z,996.31
2023-05-22T02:55:14.160Z,996.31
2023-05-22T02:55:35.474Z,996.24
2023-05-22T02:56:01.972Z,996.24
2023-05-22T02:56:33.924Z,996.24
2023-05-22T02:57:06.407Z,996.31
2023-05-22T02:57:34.501Z,996.41
2023-05-22T02:57:53.935Z,996.41
2023-05-22T02:58:26.197Z,996.41
2023-05-22T02:58:58.199Z,996.31
2023-05-22T02:59:29.912Z,996.31
2023-05-22T03:00:03.810Z,996.24
2023-05-22T03:00:33.942Z,996.24
2023-05-22T03:01:06.422Z,996.24
2023-05-22T03:01:34.598Z,996.41
2023-05-22T03:01:53.912Z,996.41
2023-05-22T03:02:26.105Z,996.41
2023-05-22T03:02:42.498Z,996.24
2023-05-22T03:03:14.738Z,996.24
2023-05-22T03:03:35.563Z,996.31
2023-05-22T03:04:02.125Z,996.31
2023-05-22T03:04:34.512Z,996.31
2023-05-22T03:05:06.817Z,996.24
2023-05-22T03:05:34.509Z,996.51
2023-05-22T03:05:54.119Z,996.51
2023-05-22T03:06:26.765Z,996.51
2023-05-22T03:06:57.941Z,996.41
2023-05-22T03:07:29.992Z,996.41
2023-05-22T03:08:01.903Z,996.41
2023-05-22T03:08:34.091Z,996.41
2023-05-22T03:09:06.349Z,996.41
2023-05-22T03:09:36.979Z,996.24
2023-05-22T03:09:53.903Z,996.24
2023-05-22T03:10:26.185Z,996.24
2023-05-22T03:10:42.409Z,996.41
2023-05-22T03:11:13.874Z,996.41
2023-05-22T03:11:35.483Z,996.51
2023-05-22T03:12:01.991Z,996.51
2023-05-22T03:12:33.867Z,996.51
2023-05-22T03:13:06.276Z,996.51
2023-05-22T03:13:34.475Z,996.41
2023-05-22T03:13:53.870Z,996.41
2023-05-22T03:14:25.882Z,996.41
2023-05-22T03:14:42.396Z,996.61
2023-05-22T03:15:14.417Z,996.61
2023-05-22T03:15:35.521Z,996.51
2023-05-22T03:16:03.132Z,996.51
2023-05-22T03:16:33.892Z,996.51
2023-05-22T03:17:06.068Z,996.31
2023-05-22T03:17:35.261Z,996.51
2023-05-22T03:17:54.003Z,996.51
2023-05-22T03:18:27.454Z,996.51
2023-05-22T03:18:42.435Z,996.41
2023-05-22T03:19:14.660Z,996.41
2023-05-22T03:19:35.491Z,996.51
2023-05-22T03:20:03.308Z,996.51
2023-05-22T03:20:34.827Z,996.51
2023-05-22T03:21:06.683Z,996.41
2023-05-22T03:21:34.484Z,996.51
2023-05-22T03:21:53.920Z,996.51
2023-05-22T03:22:26.796Z,996.51
2023-05-22T03:22:57.873Z,996.24
2023-05-22T03:23:29.917Z,996.24
2023-05-22T03:24:01.901Z,996.31
2023-05-22T03:24:33.875Z,996.31
2023-05-22T03:25:06.510Z,996.31
2023-05-22T03:25:35.317Z,996.31
2023-05-22T03:25:54.118Z,996.31
2023-05-22T03:26:26.004Z,996.31
2023-05-22T03:26:43.011Z,996.31
2023-05-22T03:27:13.856Z,996.31
2023-05-22T03:27:35.499Z,996.51
2023-05-22T03:28:01.954Z,996.51
2023-05-22T03:28:33.911Z,996.51
2023-05-22T03:29:06.093Z,996.31
2023-05-22T03:29:35.110Z,996.51
2023-05-22T03:29:53.878Z,996.51
2023-05-22T03:30:26.434Z,996.51
2023-05-22T03:30:42.801Z,996.31
2023-05-22T03:31:14.082Z,996.31
2023-05-22T03:31:35.488Z,996.41
2023-05-22T03:32:02.619Z,996.41
2023-05-22T03:32:34.173Z,996.41
2023-05-22T03:33:05.928Z,996.41
2023-05-22T03:33:34.519Z,996.51
2023-05-22T03:33:54.056Z,996.51
2023-05-22T03:34:26.229Z,996.51
2023-05-22T03:34:57.892Z,996.51
2023-05-22T03:35:30.350Z,996.51
2023-05-22T03:36:01.906Z,996.41
2023-05-22T03:36:34.581Z,996.41
2023-05-22T03:37:05.922Z,996.51
2023-05-22T03:37:34.467Z,996.51
2023-05-22T03:37:54.017Z,996.51
2023-05-22T03:38:26.855Z,996.51
2023-05-22T03:38:58.181Z,996.61
2023-05-22T03:39:30.003Z,996.61
2023-05-22T03:40:03.454Z,996.51
2023-05-22T03:40:34.025Z,996.51
2023-05-22T03:41:06.438Z,996.61
2023-05-22T03:41:36.525Z,996.51
2023-05-22T03:41:53.977Z,996.51
2023-05-22T03:42:25.999Z,996.51
2023-05-22T03:42:42.508Z,996.41
2023-05-22T03:43:14.015Z,996.41
2023-05-22T03:43:35.659Z,996.61
2023-05-22T03:44:02.088Z,996.61
2023-05-22T03:44:34.016Z,996.61
2023-05-22T03:45:07.040Z,996.61
2023-05-22T03:45:34.642Z,996.61
2023-05-22T03:45:54.371Z,996.61
2023-05-22T03:46:26.117Z,996.61
2023-05-22T03:46:42.602Z,996.61
2023-05-22T03:47:14.045Z,996.61
2023-05-22T03:47:35.766Z,996.82
2023-05-22T03:48:04.084Z,996.82
2023-05-22T03:48:34.555Z,996.82
2023-05-22T03:49:06.477Z,996.61
2023-05-22T03:49:34.693Z,996.51
2023-05-22T03:49:54.000Z,996.51
2023-05-22T03:50:26.408Z,996.51
2023-05-22T03:50:42.612Z,996.51
2023-05-22T03:51:15.027Z,996.51
2023-05-22T03:51:35.968Z,996.71
2023-05-22T03:52:02.068Z,996.71
2023-05-22T03:52:34.010Z,996.71
2023-05-22T03:53:06.542Z,996.61
2023-05-22T03:53:34.555Z,996.51
2023-05-22T03:53:53.989Z,996.51
2023-05-22T03:54:26.709Z,996.51
2023-05-22T03:54:58.010Z,996.61
2023-05-22T03:55:30.268Z,996.61
2023-05-22T03:56:02.028Z,996.61
2023-05-22T03:56:34.280Z,996.61
2023-05-22T03:57:06.559Z,996.71
2023-05-22T03:57:36.748Z,996.51
2023-05-22T03:57:53.986Z,996.51
2023-05-22T03:58:26.067Z,996.51
2023-05-22T03:58:42.542Z,996.71
2023-05-22T03:59:13.944Z,996.71
2023-05-22T03:59:35.626Z,996.61
2023-05-22T04:00:03.706Z,996.61
2023-05-22T04:00:34.040Z,996.61
2023-05-22T04:01:06.713Z,996.51
2023-05-22T04:01:35.407Z,996.61
2023-05-22T04:01:54.079Z,996.61
2023-05-22T04:02:25.521Z,996.61
2023-05-22T04:02:42.007Z,996.51
2023-05-22T04:03:13.893Z,996.51
2023-05-22T04:03:35.362Z,996.61
2023-05-22T04:04:01.397Z,996.61
2023-05-22T04:04:33.598Z,996.61
2023-05-22T04:05:06.171Z,996.61
2023-05-22T04:05:34.123Z,996.61
2023-05-22T04:05:53.582Z,996.61
2023-05-22T04:06:26.141Z,996.61
2023-05-22T04:06:43.934Z,996.51
2023-05-22T04:07:14.917Z,996.51
2023-05-22T04:07:35.706Z,996.61
2023-05-22T04:08:02.683Z,996.61
2023-05-22T04:08:34.275Z,996.61
2023-05-22T04:09:06.097Z,996.61
2023-05-22T04:09:34.614Z,996.51
2023-05-22T04:09:54.116Z,996.51
2023-05-22T04:10:26.244Z,996.51
2023-05-22T04:10:42.585Z,996.61
2023-05-22T04:11:14.816Z,996.61
2023-05-22T04:11:37.207Z,996.71
2023-05-22T04:12:01.977Z,996.71
2023-05-22T04:12:34.382Z,996.71
2023-05-22T04:13:06.068Z,996.92
2023-05-22T04:13:34.609Z,996.71
2023-05-22T04:13:54.006Z,996.71
2023-05-22T04:14:26.865Z,996.71
2023-05-22T04:14:57.989Z,996.61
2023-05-22T04:15:30.619Z,996.61
2023-05-22T04:16:03.501Z,996.41
2023-05-22T04:16:34.273Z,996.41
2023-05-22T04:17:06.066Z,996.82
2023-05-22T04:17:36.353Z,996.61
2023-05-22T04:17:53.959Z,996.61
2023-05-22T04:18:25.981Z,996.61
2023-05-22T04:18:42.433Z,996.71
2023-05-22T04:19:14.106Z,996.71
2023-05-22T04:19:35.677Z,996.51
2023-05-22T04:20:03.836Z,996.51
2023-05-22T04:20:34.421Z,996.51
2023-05-22T04:21:06.056Z,996.71
2023-05-22T04:21:34.680Z,996.82
2023-05-22T04:21:54.052Z,996.82
2023-05-22T04:22:25.964Z,996.82
2023-05-22T04:22:42.521Z,996.82
2023-05-22T04:23:14.034Z,996.82
2023-05-22T04:23:35.705Z,996.71
2023-05-22T04:24:02.897Z,996.71
2023-05-22T04:24:34.289Z,996.71
2023-05-22T04:25:06.342Z,996.61
2023-05-22T04:25:34.701Z,996.92
2023-05-22T04:25:54.206Z,996.92
2023-05-22T04:26:25.964Z,996.92
2023-05-22T04:26:42.773Z,996.82
2023-05-22T04:27:14.761Z,996.82
2023-05-22T04:27:36.051Z,996.82
2023-05-22T04:28:01.979Z,996.82
2023-05-22T04:28:34.286Z,996.82
2023-05-22T04:29:06.104Z,996.82
2023-05-22T04:29:35.254Z,996.82
2023-05-22T04:29:53.943Z,996.82
2023-05-22T04:30:27.300Z,996.82
2023-05-22T04:30:58.054Z,996.61
2023-05-22T04:31:30.024Z,996.61
2023-05-22T04:32:02.286Z,996.71
2023-05-22T04:32:34.322Z,996.71
2023-05-22T04:33:06.070Z,996.82
2023-05-22T04:33:35.476Z,996.71
2023-05-22T04:33:53.947Z,996.71
2023-05-22T04:34:26.035Z,996.71
2023-05-22T04:34:42.485Z,996.71
2023-05-22T04:35:14.347Z,996.71
2023-05-22T04:35:35.787Z,996.82
2023-05-22T04:36:02.055Z,996.82
2023-05-22T04:36:34.298Z,996.82
2023-05-22T04:37:06.066Z,996.71
2023-05-22T04:37:34.610Z,996.82
2023-05-22T04:37:54.271Z,996.82
2023-05-22T04:38:25.977Z,996.82
2023-05-22T04:38:42.504Z,997.02
2023-05-22T04:39:14.028Z,997.02
2023-05-22T04:39:35.705Z,996.71
2023-05-22T04:40:03.939Z,996.71
2023-05-22T04:40:34.414Z,996.71
2023-05-22T04:41:06.141Z,996.92
2023-05-22T04:41:34.589Z,996.82
2023-05-22T04:41:53.956Z,996.82
2023-05-22T04:42:25.970Z,996.82
2023-05-22T04:42:42.491Z,996.82
2023-05-22T04:43:14.639Z,996.82
2023-05-22T04:43:35.615Z,996.82
2023-05-22T04:44:01.957Z,996.82
2023-05-22T04:44:34.394Z,996.82
2023-05-22T04:45:06.642Z,996.92
2023-05-22T04:45:34.814Z,996.82
2023-05-22T04:45:54.298Z,996.82
2023-05-22T04:46:26.827Z,996.82
2023-05-22T04:46:58.033Z,996.82
2023-05-22T04:47:30.117Z,996.82
2023-05-22T04:48:02.017Z,996.82
2023-05-22T04:48:34.354Z,996.82
2023-05-22T04:49:06.083Z,996.71
2023-05-22T04:49:35.379Z,996.92
2023-05-22T04:49:54.039Z,996.92
2023-05-22T04:50:26.248Z,996.92
2023-05-22T04:50:42.589Z,996.92
2023-05-22T04:51:14.030Z,996.92
2023-05-22T04:51:35.884Z,996.82
2023-05-22T04:52:01.954Z,996.82
2023-05-22T04:52:34.465Z,996.82
2023-05-22T04:53:06.018Z,996.71
2023-05-22T04:53:36.166Z,997.02
2023-05-22T04:53:53.966Z,997.02
2023-05-22T04:54:26.000Z,997.02
2023-05-22T04:54:42.481Z,996.82
2023-05-22T04:55:14.236Z,996.82
2023-05-22T04:55:35.688Z,996.92
2023-05-22T04:56:02.713Z,996.92
2023-05-22T04:56:36.969Z,996.92
2023-05-22T04:57:05.955Z,996.92
2023-05-22T04:57:34.580Z,996.82
2023-05-22T04:57:54.016Z,996.82
2023-05-22T04:58:25.961Z,996.82
2023-05-22T04:58:42.753Z,996.92
2023-05-22T04:59:13.957Z,996.92
2023-05-22T04:59:35.644Z,996.92
2023-05-22T05:00:04.082Z,996.92
2023-05-22T05:00:34.464Z,996.92
2023-05-22T05:01:06.035Z,996.92
2023-05-22T05:01:35.464Z,997.02
2023-05-22T05:01:53.939Z,997.02
2023-05-22T05:02:26.070Z,997.02
2023-05-22T05:02:42.482Z,996.92
2023-05-22T05:03:14.072Z,996.92
2023-05-22T05:03:35.898Z,997.02
2023-05-22T05:04:02.131Z,997.02
2023-05-22T05:04:34.395Z,997.02
2023-05-22T05:05:06.472Z,996.92
2023-05-22T05:05:34.921Z,996.92
2023-05-22T05:05:54.181Z,996.92
2023-05-22T05:06:25.966Z,996.92
2023-05-22T05:06:42.505Z,996.82
2023-05-22T05:07:13.982Z,996.82
2023-05-22T05:07:35.670Z,996.92
2023-05-22T05:08:02.659Z,996.92
2023-05-22T05:08:34.333Z,996.92
2023-05-22T05:09:06.242Z,996.92
2023-05-22T05:09:34.616Z,997.02
2023-05-22T05:09:53.923Z,997.02
2023-05-22T05:10:26.273Z,997.02
2023-05-22T05:10:42.500Z,997.02
2023-05-22T05:11:14.676Z,997.02
2023-05-22T05:11:35.716Z,996.92
2023-05-22T05:12:01.953Z,996.92
2023-05-22T05:12:34.418Z,996.92
2023-05-22T05:13:06.028Z,996.92
2023-05-22T05:13:34.590Z,996.71
2023-05-22T05:13:53.949Z,996.71
2023-05-22T05:14:26.776Z,996.71
2023-05-22T05:14:58.143Z,996.82
2023-05-22T05:15:30.410Z,996.82
2023-05-22T05:16:03.641Z,996.82
2023-05-22T05:16:34.462Z,996.82
2023-05-22T05:17:06.021Z,997.12
2023-05-22T05:17:36.427Z,996.82
2023-05-22T05:17:54.012Z,996.82
2023-05-22T05:18:25.898Z,996.82
2023-05-22T05:18:42.413Z,997.02
2023-05-22T05:19:13.974Z,997.02
2023-05-22T05:19:37.131Z,997.02
2023-05-22T05:20:03.920Z,997.02
2023-05-22T05:20:34.475Z,997.02
2023-05-22T05:21:06.095Z,997.02
2023-05-22T05:21:34.536Z,997.12
2023-05-22T05:21:53.954Z,997.12
2023-05-22T05:22:25.961Z,997.12
2023-05-22T05:22:42.491Z,996.92
2023-05-22T05:23:13.996Z,996.92
2023-05-22T05:23:35.678Z,997.02
2023-05-22T05:24:02.648Z,997.02
2023-05-22T05:24:34.521Z,997.02
2023-05-22T05:25:06.307Z,997.22
2023-05-22T05:25:34.609Z,997.12
2023-05-22T05:25:54.210Z,997.12
2023-05-22T05:26:25.971Z,997.12
2023-05-22T05:26:42.450Z,997.12
2023-05-22T05:27:15.031Z,997.12
2023-05-22T05:27:35.951Z,997.02
2023-05-22T05:28:01.965Z,997.02
2023-05-22T05:28:34.445Z,997.02
2023-05-22T05:29:06.045Z,997.02
2023-05-22T05:29:34.610Z,997.02
2023-05-22T05:29:54.089Z,997.02
2023-05-22T05:30:27.949Z,997.02
2023-05-22T05:30:57.959Z,997.02
2023-05-22T05:31:30.009Z,997.02
2023-05-22T05:32:02.037Z,997.12
2023-05-22T05:32:34.448Z,997.12
2023-05-22T05:33:06.212Z,996.92
2023-05-22T05:33:35.310Z,996.92
2023-05-22T05:33:53.969Z,996.92
2023-05-22T05:34:25.968Z,996.92
2023-05-22T05:34:42.500Z,997.02
2023-05-22T05:35:14.210Z,997.02
2023-05-22T05:35:36.013Z,996.92
2023-05-22T05:36:01.985Z,996.92
2023-05-22T05:36:34.438Z,996.92
2023-05-22T05:37:05.996Z,997.12
2023-05-22T05:37:34.567Z,997.32
2023-05-22T05:37:53.964Z,997.32
2023-05-22T05:38:25.925Z,997.32
2023-05-22T05:38:42.445Z,996.92
2023-05-22T05:39:13.971Z,996.92
2023-05-22T05:39:35.790Z,997.02
2023-05-22T05:40:07.476Z,997.02
2023-05-22T05:40:34.607Z,997.02
2023-05-22T05:41:06.053Z,997.02
2023-05-22T05:41:34.565Z,997.12
2023-05-22T05:41:53.892Z,997.12
2023-05-22T05:42:25.959Z,997.12
2023-05-22T05:42:42.486Z,996.92